Time;durP1;ratioP1;P1;durP2;ratioP2;P2;SDS_P1;SDS_P2;PMS_P1;PMS_P2;Temp;Humidity;BMP_temperature;BMP_pressure;BME280_temperature;BME280_humidity;BME280_pressure;Samples;Min_cycle;Max_cycle;Signal;HPM_P1;HPM_P2
2020/12/12 00:00:36;;;;;;;;;;;20.60;35.00;;;;;;491630;240;1051;-69
2020/12/12 00:02:37;;;;;;;;;;;20.50;34.90;;;;;;491584;240;1073;-69
2020/12/12 00:04:38;;;;;;;;;;;20.50;34.90;;;;;;491660;240;1140;-69
2020/12/12 00:06:40;;;;;;;;;;;20.60;35.00;;;;;;491602;240;1204;-69
2020/12/12 00:08:41;;;;;;;;;;;20.50;34.90;;;;;;491567;240;1156;-70
2020/12/12 00:10:42;;;;;;;;;;;20.50;34.90;;;;;;491722;240;1118;-69
2020/12/12 00:12:44;;;;;;;;;;;20.40;35.00;;;;;;491576;240;1282;-69
2020/12/12 00:14:45;;;;;;;;;;;20.50;35.10;;;;;;491577;240;1392;-69
2020/12/12 00:16:46;;;;;;;;;;;20.50;35.00;;;;;;491610;240;1046;-69
2020/12/12 00:18:47;;;;;;;;;;;20.50;34.90;;;;;;491519;240;2195;-69
2020/12/12 00:20:49;;;;;;;;;;;20.50;34.90;;;;;;491581;240;942;-69
2020/12/12 00:22:50;;;;;;;;;;;20.50;34.90;;;;;;491542;240;1201;-69
2020/12/12 00:24:52;;;;;;;;;;;20.50;34.80;;;;;;491691;240;949;-69
2020/12/12 00:26:53;;;;;;;;;;;20.50;34.80;;;;;;491619;240;1265;-69
2020/12/12 00:28:55;;;;;;;;;;;20.50;34.80;;;;;;491653;240;1151;-70
2020/12/12 00:30:56;;;;;;;;;;;20.50;34.90;;;;;;491718;240;974;-70
2020/12/12 00:32:57;;;;;;;;;;;20.40;34.80;;;;;;491645;240;1259;-69
2020/12/12 00:34:58;;;;;;;;;;;20.50;34.60;;;;;;491640;240;1078;-69
2020/12/12 00:36:59;;;;;;;;;;;20.50;34.70;;;;;;491632;240;970;-69
2020/12/12 00:39:00;;;;;;;;;;;20.40;34.80;;;;;;491750;240;2184;-69
2020/12/12 00:41:02;;;;;;;;;;;20.40;34.80;;;;;;491551;240;1130;-69
2020/12/12 00:43:03;;;;;;;;;;;20.40;34.70;;;;;;491649;240;1130;-69
2020/12/12 00:45:04;;;;;;;;;;;20.50;34.70;;;;;;491612;240;1247;-69
2020/12/12 00:47:06;;;;;;;;;;;20.40;34.80;;;;;;491694;240;1036;-70
2020/12/12 00:49:07;;;;;;;;;;;20.50;34.80;;;;;;491646;240;1303;-69
2020/12/12 00:51:08;;;;;;;;;;;20.50;34.70;;;;;;491565;240;1079;-69
2020/12/12 00:53:09;;;;;;;;;;;20.50;34.80;;;;;;491629;240;963;-69
2020/12/12 00:55:11;;;;;;;;;;;20.50;34.70;;;;;;491668;240;1236;-69
2020/12/12 00:57:12;;;;;;;;;;;20.40;34.80;;;;;;491651;240;1172;-70
2020/12/12 00:59:13;;;;;;;;;;;20.40;34.90;;;;;;491666;240;2180;-69
2020/12/12 01:01:14;;;;;;;;;;;20.40;34.90;;;;;;491716;240;1103;-69
2020/12/12 01:03:16;;;;;;;;;;;20.40;34.80;;;;;;491676;240;973;-69
2020/12/12 01:05:17;;;;;;;;;;;20.40;34.80;;;;;;491644;240;1058;-69
2020/12/12 01:07:18;;;;;;;;;;;20.40;34.90;;;;;;491600;240;1051;-70
2020/12/12 01:09:20;;;;;;;;;;;20.40;34.70;;;;;;491652;240;1084;-69
2020/12/12 01:11:21;;;;;;;;;;;20.50;34.70;;;;;;491606;240;955;-70
2020/12/12 01:13:22;;;;;;;;;;;20.50;34.90;;;;;;491647;240;1254;-69
2020/12/12 01:15:23;;;;;;;;;;;20.50;34.80;;;;;;491616;240;966;-70
2020/12/12 01:17:25;;;;;;;;;;;20.50;34.90;;;;;;491625;240;2191;-69
2020/12/12 01:19:26;;;;;;;;;;;20.40;34.90;;;;;;491713;240;1062;-69
2020/12/12 01:21:27;;;;;;;;;;;20.40;35.00;;;;;;491750;240;932;-69
2020/12/12 01:23:29;;;;;;;;;;;20.40;34.60;;;;;;491704;240;1103;-69
2020/12/12 01:25:30;;;;;;;;;;;20.50;34.90;;;;;;491650;240;1115;-69
2020/12/12 01:27:31;;;;;;;;;;;20.40;35.00;;;;;;491574;240;1419;-69
2020/12/12 01:29:32;;;;;;;;;;;20.40;35.10;;;;;;491662;240;1074;-69
2020/12/12 01:31:34;;;;;;;;;;;20.50;35.00;;;;;;491608;240;988;-69
2020/12/12 01:33:35;;;;;;;;;;;20.50;35.10;;;;;;491611;240;1070;-69
2020/12/12 01:35:36;;;;;;;;;;;20.40;35.10;;;;;;491635;240;948;-69
2020/12/12 01:37:37;;;;;;;;;;;20.40;35.00;;;;;;491712;240;2183;-69
2020/12/12 01:39:39;;;;;;;;;;;20.40;35.10;;;;;;491662;240;985;-69
2020/12/12 01:41:40;;;;;;;;;;;20.40;35.10;;;;;;491660;240;1195;-69
2020/12/12 01:43:41;;;;;;;;;;;20.40;35.00;;;;;;491656;240;1294;-69
2020/12/12 01:45:43;;;;;;;;;;;20.40;35.10;;;;;;491628;240;1066;-69
2020/12/12 01:47:44;;;;;;;;;;;20.40;35.10;;;;;;491694;240;1014;-69
2020/12/12 01:49:45;;;;;;;;;;;20.40;35.20;;;;;;491647;240;1063;-69
2020/12/12 01:51:46;;;;;;;;;;;20.40;35.10;;;;;;491642;240;985;-69
2020/12/12 01:53:48;;;;;;;;;;;20.40;34.90;;;;;;491709;240;948;-69
2020/12/12 01:55:49;;;;;;;;;;;20.40;35.00;;;;;;491581;240;1192;-69
2020/12/12 01:57:50;;;;;;;;;;;20.40;35.00;;;;;;491727;240;2195;-69
2020/12/12 01:59:51;;;;;;;;;;;20.40;35.10;;;;;;491682;240;967;-69
2020/12/12 02:01:53;;;;;;;;;;;20.40;34.90;;;;;;491705;240;1221;-70
2020/12/12 02:03:54;;;;;;;;;;;20.50;34.80;;;;;;491664;240;1044;-70
2020/12/12 02:05:55;;;;;;;;;;;20.40;34.80;;;;;;491637;240;1231;-69
2020/12/12 02:07:57;;;;;;;;;;;20.40;34.90;;;;;;491583;240;978;-69
2020/12/12 02:09:58;;;;;;;;;;;20.40;34.90;;;;;;491596;240;963;-69
2020/12/12 02:11:59;;;;;;;;;;;20.40;34.80;;;;;;491616;240;1078;-69
2020/12/12 02:14:00;;;;;;;;;;;20.40;34.80;;;;;;491655;240;1215;-69
2020/12/12 02:16:02;;;;;;;;;;;20.40;34.70;;;;;;491590;240;1197;-69
2020/12/12 02:18:03;;;;;;;;;;;20.40;34.70;;;;;;491654;240;2195;-69
2020/12/12 02:20:04;;;;;;;;;;;20.50;34.60;;;;;;491665;240;1031;-69
2020/12/12 02:22:06;;;;;;;;;;;20.50;34.60;;;;;;491650;240;1264;-69
2020/12/12 02:24:07;;;;;;;;;;;20.40;34.60;;;;;;491769;240;985;-69
2020/12/12 02:26:08;;;;;;;;;;;20.40;34.70;;;;;;491632;240;1288;-69
2020/12/12 02:28:13;;;;;;;;;;;20.50;34.60;;;;;;491595;240;1175;-69
2020/12/12 02:30:11;;;;;;;;;;;20.40;34.60;;;;;;491625;241;1631;-69
2020/12/12 02:32:12;;;;;;;;;;;20.40;34.60;;;;;;491662;240;1197;-69
2020/12/12 02:34:13;;;;;;;;;;;20.40;34.70;;;;;;491690;240;956;-69
2020/12/12 02:36:15;;;;;;;;;;;20.40;34.70;;;;;;491736;240;1060;-70
2020/12/12 02:38:16;;;;;;;;;;;20.30;34.80;;;;;;491639;240;2195;-70
2020/12/12 02:40:17;;;;;;;;;;;20.40;34.80;;;;;;491667;240;1057;-69
2020/12/12 02:42:19;;;;;;;;;;;20.30;34.90;;;;;;491608;240;982;-69
2020/12/12 02:44:20;;;;;;;;;;;20.30;34.80;;;;;;491628;240;1194;-69
2020/12/12 02:46:21;;;;;;;;;;;20.40;34.80;;;;;;491626;240;1036;-69
2020/12/12 02:48:22;;;;;;;;;;;20.40;34.60;;;;;;491659;240;1256;-69
2020/12/12 02:50:27;;;;;;;;;;;20.40;34.60;;;;;;491667;240;1160;-69
2020/12/12 02:52:28;;;;;;;;;;;20.40;34.70;;;;;;491693;241;1455;-69
2020/12/12 02:54:29;;;;;;;;;;;20.40;34.70;;;;;;491687;240;1057;-69
2020/12/12 02:56:31;;;;;;;;;;;20.40;34.70;;;;;;491644;240;944;-69
2020/12/12 02:58:32;;;;;;;;;;;20.40;34.70;;;;;;491651;240;2183;-70
2020/12/12 03:00:33;;;;;;;;;;;20.40;34.70;;;;;;491679;240;1113;-69
2020/12/12 03:02:34;;;;;;;;;;;20.40;34.60;;;;;;491633;240;1047;-69
2020/12/12 03:04:36;;;;;;;;;;;20.40;34.20;;;;;;491626;240;1189;-69
2020/12/12 03:06:43;;;;;;;;;;;20.40;34.80;;;;;;491656;240;1045;-69
2020/12/12 03:08:38;;;;;;;;;;;20.40;34.90;;;;;;491598;241;1368;-69
2020/12/12 03:10:40;;;;;;;;;;;20.40;34.90;;;;;;491691;240;1295;-69
2020/12/12 03:12:41;;;;;;;;;;;20.40;34.90;;;;;;491640;240;1030;-69
2020/12/12 03:14:42;;;;;;;;;;;20.30;35.00;;;;;;491784;240;1551;-69
2020/12/12 03:16:43;;;;;;;;;;;20.30;35.00;;;;;;491621;240;1168;-69
2020/12/12 03:18:45;;;;;;;;;;;20.30;35.00;;;;;;491659;240;2196;-69
2020/12/12 03:20:46;;;;;;;;;;;20.30;35.00;;;;;;491658;240;935;-69
2020/12/12 03:22:47;;;;;;;;;;;20.30;35.00;;;;;;491652;240;1067;-69
2020/12/12 03:24:49;;;;;;;;;;;20.30;35.00;;;;;;491684;240;1032;-69
2020/12/12 03:26:50;;;;;;;;;;;20.30;35.00;;;;;;491640;240;1214;-69
2020/12/12 03:28:51;;;;;;;;;;;20.30;35.00;;;;;;491621;240;1149;-69
2020/12/12 03:30:52;;;;;;;;;;;20.20;35.10;;;;;;491649;240;968;-69
2020/12/12 03:32:54;;;;;;;;;;;20.30;34.70;;;;;;491605;240;1191;-69
2020/12/12 03:34:55;;;;;;;;;;;20.30;34.70;;;;;;491637;240;936;-69
2020/12/12 03:36:56;;;;;;;;;;;20.30;35.20;;;;;;491638;240;1085;-69
2020/12/12 03:38:57;;;;;;;;;;;20.40;35.30;;;;;;491669;240;2172;-69
2020/12/12 03:40:59;;;;;;;;;;;20.40;35.10;;;;;;491646;240;1049;-69
2020/12/12 03:43:00;;;;;;;;;;;20.40;35.10;;;;;;491605;240;1144;-69
2020/12/12 03:45:01;;;;;;;;;;;20.40;35.00;;;;;;491682;240;1200;-69
2020/12/12 03:47:03;;;;;;;;;;;20.40;35.00;;;;;;491650;240;1052;-69
2020/12/12 03:49:04;;;;;;;;;;;20.40;34.80;;;;;;491679;240;987;-69
2020/12/12 03:51:05;;;;;;;;;;;20.40;34.90;;;;;;491705;240;951;-69
2020/12/12 03:53:06;;;;;;;;;;;20.40;34.90;;;;;;491667;240;950;-69
2020/12/12 03:55:08;;;;;;;;;;;20.40;35.00;;;;;;491666;240;993;-69
2020/12/12 03:57:09;;;;;;;;;;;20.40;35.00;;;;;;491665;240;1176;-69
2020/12/12 03:59:10;;;;;;;;;;;20.40;34.90;;;;;;491563;240;2237;-69
2020/12/12 04:01:11;;;;;;;;;;;20.30;35.00;;;;;;491684;240;1017;-70
2020/12/12 04:03:13;;;;;;;;;;;20.30;35.00;;;;;;491652;240;1122;-69
2020/12/12 04:05:14;;;;;;;;;;;20.30;35.10;;;;;;491642;240;1045;-69
2020/12/12 04:07:15;;;;;;;;;;;20.30;35.00;;;;;;491714;240;1115;-69
2020/12/12 04:09:17;;;;;;;;;;;20.30;35.00;;;;;;491660;240;967;-69
2020/12/12 04:11:18;;;;;;;;;;;20.40;35.00;;;;;;491714;240;1189;-70
2020/12/12 04:13:19;;;;;;;;;;;20.30;34.80;;;;;;491699;240;1060;-69
2020/12/12 04:15:20;;;;;;;;;;;20.30;34.80;;;;;;491682;240;1156;-69
2020/12/12 04:17:22;;;;;;;;;;;20.30;34.90;;;;;;491696;240;1169;-69
2020/12/12 04:19:23;;;;;;;;;;;20.40;34.90;;;;;;491708;240;2184;-69
2020/12/12 04:21:24;;;;;;;;;;;20.40;34.80;;;;;;491779;240;1027;-69
2020/12/12 04:23:26;;;;;;;;;;;20.40;34.70;;;;;;491741;240;1102;-69
2020/12/12 04:25:27;;;;;;;;;;;20.40;34.70;;;;;;491803;240;1064;-69
2020/12/12 04:27:30;;;;;;;;;;;20.40;34.80;;;;;;491637;240;1060;-69
2020/12/12 04:29:30;;;;;;;;;;;20.30;34.80;;;;;;491609;240;1503;-69
2020/12/12 04:31:31;;;;;;;;;;;20.30;34.80;;;;;;491624;240;987;-69
2020/12/12 04:33:32;;;;;;;;;;;20.30;34.80;;;;;;491652;240;973;-68
2020/12/12 04:35:34;;;;;;;;;;;20.20;34.90;;;;;;491657;240;954;-69
2020/12/12 04:37:35;;;;;;;;;;;20.20;35.00;;;;;;491702;240;972;-69
2020/12/12 04:39:36;;;;;;;;;;;20.20;34.90;;;;;;491616;240;2192;-69
2020/12/12 04:41:38;;;;;;;;;;;20.30;34.90;;;;;;491641;240;1012;-69
2020/12/12 04:43:39;;;;;;;;;;;20.40;34.80;;;;;;491682;240;933;-69
2020/12/12 04:45:40;;;;;;;;;;;20.30;34.80;;;;;;491742;240;1280;-69
2020/12/12 04:47:41;;;;;;;;;;;20.30;34.90;;;;;;491675;240;958;-69
2020/12/12 04:49:43;;;;;;;;;;;20.30;35.00;;;;;;491681;240;955;-69
2020/12/12 04:51:44;;;;;;;;;;;20.30;34.90;;;;;;491673;240;1378;-69
2020/12/12 04:53:45;;;;;;;;;;;20.40;34.90;;;;;;491613;240;970;-69
2020/12/12 04:55:46;;;;;;;;;;;20.40;34.90;;;;;;491668;240;1075;-69
2020/12/12 04:57:48;;;;;;;;;;;20.30;35.00;;;;;;491656;240;1066;-69
2020/12/12 04:59:49;;;;;;;;;;;20.30;35.10;;;;;;491745;240;2192;-69
2020/12/12 05:01:50;;;;;;;;;;;20.30;35.10;;;;;;491667;240;1059;-69
2020/12/12 05:03:52;;;;;;;;;;;20.20;34.70;;;;;;491680;240;1099;-69
2020/12/12 05:05:53;;;;;;;;;;;20.30;35.20;;;;;;491690;240;1121;-69
2020/12/12 05:07:54;;;;;;;;;;;20.40;35.20;;;;;;491679;240;961;-69
2020/12/12 05:09:55;;;;;;;;;;;20.30;35.20;;;;;;491640;240;1039;-69
2020/12/12 05:11:57;;;;;;;;;;;20.40;35.20;;;;;;491602;240;982;-69
2020/12/12 05:13:58;;;;;;;;;;;20.40;35.20;;;;;;491727;240;1054;-69
2020/12/12 05:15:59;;;;;;;;;;;20.30;35.30;;;;;;491660;240;1091;-69
2020/12/12 05:18:01;;;;;;;;;;;20.30;35.40;;;;;;491608;240;1222;-69
2020/12/12 05:20:02;;;;;;;;;;;20.30;35.30;;;;;;491626;240;2199;-69
2020/12/12 05:22:03;;;;;;;;;;;20.30;35.40;;;;;;491611;240;1152;-69
2020/12/12 05:24:04;;;;;;;;;;;20.30;35.30;;;;;;491615;240;1095;-69
2020/12/12 05:26:06;;;;;;;;;;;20.30;35.30;;;;;;491597;240;1285;-70
2020/12/12 05:28:07;;;;;;;;;;;20.30;35.40;;;;;;491637;240;1281;-69
2020/12/12 05:30:08;;;;;;;;;;;20.30;35.30;;;;;;491614;240;1133;-69
2020/12/12 05:32:09;;;;;;;;;;;20.30;35.30;;;;;;491575;240;1191;-69
2020/12/12 05:34:11;;;;;;;;;;;20.30;35.30;;;;;;491622;240;1198;-69
2020/12/12 05:36:12;;;;;;;;;;;20.30;35.30;;;;;;491623;240;1317;-69
2020/12/12 05:38:13;;;;;;;;;;;20.30;35.20;;;;;;491639;240;1046;-69
2020/12/12 05:40:15;;;;;;;;;;;20.30;35.20;;;;;;491727;240;2252;-69
2020/12/12 05:42:16;;;;;;;;;;;20.30;35.20;;;;;;491610;240;1193;-69
2020/12/12 05:44:17;;;;;;;;;;;20.30;35.10;;;;;;491672;240;1033;-69
2020/12/12 05:46:18;;;;;;;;;;;20.30;35.20;;;;;;491670;240;1140;-69
2020/12/12 05:48:20;;;;;;;;;;;20.20;35.20;;;;;;491662;240;1074;-69
2020/12/12 05:50:21;;;;;;;;;;;20.20;35.30;;;;;;491649;240;1105;-69
2020/12/12 05:52:22;;;;;;;;;;;20.20;35.20;;;;;;491639;240;1083;-69
2020/12/12 05:54:24;;;;;;;;;;;20.20;35.10;;;;;;491650;240;955;-69
2020/12/12 05:56:25;;;;;;;;;;;20.20;35.20;;;;;;491623;240;1184;-69
2020/12/12 05:58:26;;;;;;;;;;;20.20;35.20;;;;;;491648;240;1079;-69
2020/12/12 06:00:27;;;;;;;;;;;20.30;35.20;;;;;;491608;240;2211;-69
2020/12/12 06:02:29;;;;;;;;;;;20.30;35.10;;;;;;491581;240;1065;-69
2020/12/12 06:04:30;;;;;;;;;;;20.20;35.10;;;;;;491641;240;1027;-69
2020/12/12 06:06:31;;;;;;;;;;;20.30;35.10;;;;;;491596;240;1120;-69
2020/12/12 06:08:32;;;;;;;;;;;20.20;35.00;;;;;;491713;240;1054;-69
2020/12/12 06:10:34;;;;;;;;;;;20.30;35.00;;;;;;491659;240;1410;-69
2020/12/12 06:12:35;;;;;;;;;;;20.20;35.00;;;;;;491623;240;1099;-69
2020/12/12 06:14:37;;;;;;;;;;;20.30;35.10;;;;;;491652;240;936;-69
2020/12/12 06:16:38;;;;;;;;;;;20.20;35.10;;;;;;491570;240;1287;-69
2020/12/12 06:18:39;;;;;;;;;;;20.30;35.00;;;;;;491633;240;1070;-69
2020/12/12 06:20:40;;;;;;;;;;;20.20;35.00;;;;;;491622;240;2187;-69
2020/12/12 06:22:42;;;;;;;;;;;20.20;35.10;;;;;;491606;240;1119;-69
2020/12/12 06:24:43;;;;;;;;;;;20.20;35.10;;;;;;491648;240;1132;-69
2020/12/12 06:26:44;;;;;;;;;;;20.20;34.90;;;;;;491569;240;1154;-69
2020/12/12 06:28:46;;;;;;;;;;;20.20;34.70;;;;;;491612;240;1070;-69
2020/12/12 06:30:47;;;;;;;;;;;20.20;35.20;;;;;;491611;240;1149;-69
2020/12/12 06:32:48;;;;;;;;;;;20.20;35.20;;;;;;491633;240;1137;-69
2020/12/12 06:34:49;;;;;;;;;;;20.20;35.10;;;;;;491618;240;1015;-69
2020/12/12 06:36:51;;;;;;;;;;;20.20;35.20;;;;;;491667;240;969;-69
2020/12/12 06:38:52;;;;;;;;;;;20.30;35.20;;;;;;491718;240;1213;-69
2020/12/12 06:40:53;;;;;;;;;;;20.20;35.10;;;;;;491652;240;2199;-69
2020/12/12 06:42:54;;;;;;;;;;;20.20;35.20;;;;;;491625;240;1083;-69
2020/12/12 06:44:56;;;;;;;;;;;20.30;35.20;;;;;;491612;240;1027;-69
2020/12/12 06:46:57;;;;;;;;;;;20.30;35.10;;;;;;491606;240;1160;-69
2020/12/12 06:48:58;;;;;;;;;;;20.30;35.10;;;;;;491630;240;980;-69
2020/12/12 06:51:00;;;;;;;;;;;20.30;35.20;;;;;;491622;240;1045;-69
2020/12/12 06:53:01;;;;;;;;;;;20.30;35.20;;;;;;491651;240;964;-69
2020/12/12 06:55:03;;;;;;;;;;;20.20;35.20;;;;;;491694;240;1061;-69
2020/12/12 06:57:03;;;;;;;;;;;20.30;35.20;;;;;;491683;240;1376;-69
2020/12/12 06:59:05;;;;;;;;;;;20.20;35.20;;;;;;491647;240;1069;-69
2020/12/12 07:01:06;;;;;;;;;;;20.30;35.20;;;;;;491613;240;2187;-69
2020/12/12 07:03:07;;;;;;;;;;;20.30;35.30;;;;;;491659;240;1201;-69
2020/12/12 07:05:09;;;;;;;;;;;20.20;35.20;;;;;;491646;240;1020;-69
2020/12/12 07:07:10;;;;;;;;;;;20.20;35.30;;;;;;491641;240;1035;-69
2020/12/12 07:09:11;;;;;;;;;;;20.20;35.30;;;;;;491663;240;978;-70
2020/12/12 07:11:12;;;;;;;;;;;20.20;35.30;;;;;;491627;240;944;-69
2020/12/12 07:13:14;;;;;;;;;;;20.20;35.20;;;;;;491625;240;973;-70
2020/12/12 07:15:15;;;;;;;;;;;20.30;35.40;;;;;;491640;240;956;-69
2020/12/12 07:17:17;;;;;;;;;;;20.30;35.30;;;;;;491513;240;1174;-69
2020/12/12 07:19:20;;;;;;;;;;;20.30;35.30;;;;;;491608;240;1151;-69
2020/12/12 07:21:19;;;;;;;;;;;20.20;35.30;;;;;;491585;240;2187;-69
2020/12/12 07:23:20;;;;;;;;;;;20.20;35.50;;;;;;491614;240;1091;-69
2020/12/12 07:25:22;;;;;;;;;;;20.20;35.50;;;;;;491656;240;1152;-69
2020/12/12 07:27:23;;;;;;;;;;;20.20;35.40;;;;;;491567;240;1225;-69
2020/12/12 07:29:24;;;;;;;;;;;20.20;35.40;;;;;;491676;240;1099;-69
2020/12/12 07:31:26;;;;;;;;;;;20.30;35.50;;;;;;491606;240;1215;-69
2020/12/12 07:33:27;;;;;;;;;;;20.30;35.30;;;;;;491639;240;1253;-69
2020/12/12 07:35:28;;;;;;;;;;;20.30;35.30;;;;;;491624;240;1315;-69
2020/12/12 07:37:31;;;;;;;;;;;20.30;35.30;;;;;;491594;240;1067;-69
2020/12/12 07:39:31;;;;;;;;;;;20.30;35.30;;;;;;491639;241;2188;-70
2020/12/12 07:41:32;;;;;;;;;;;20.30;35.10;;;;;;491628;240;1080;-69
2020/12/12 07:43:34;;;;;;;;;;;20.20;35.10;;;;;;491629;240;1065;-69
2020/12/12 07:45:47;;;;;;;;;;;20.30;35.30;;;;;;491639;240;1218;-69
2020/12/12 07:47:39;;;;;;;;;;;20.40;35.30;;;;;;491574;241;1336;-69
2020/12/12 07:49:41;;;;;;;;;;;20.30;35.30;;;;;;491615;240;963;-69
2020/12/12 07:51:42;;;;;;;;;;;20.30;35.20;;;;;;491647;240;1004;-69
2020/12/12 07:53:43;;;;;;;;;;;20.30;35.30;;;;;;491657;240;947;-69
2020/12/12 07:55:47;;;;;;;;;;;20.30;35.30;;;;;;491641;240;944;-70
2020/12/12 07:57:46;;;;;;;;;;;20.30;35.30;;;;;;491574;242;1339;-69
2020/12/12 07:59:47;;;;;;;;;;;20.30;35.30;;;;;;491667;240;2188;-69
2020/12/12 08:01:49;;;;;;;;;;;20.20;35.20;;;;;;491611;240;961;-69
2020/12/12 08:03:50;;;;;;;;;;;20.20;35.30;;;;;;491640;240;952;-69
2020/12/12 08:05:51;;;;;;;;;;;20.30;35.20;;;;;;491631;240;969;-69
2020/12/12 08:07:52;;;;;;;;;;;20.20;35.30;;;;;;491646;240;947;-69
2020/12/12 08:09:54;;;;;;;;;;;20.20;35.20;;;;;;491652;240;976;-70
2020/12/12 08:11:55;;;;;;;;;;;20.30;35.20;;;;;;491712;240;1013;-69
2020/12/12 08:13:57;;;;;;;;;;;20.20;35.20;;;;;;491653;240;1066;-69
2020/12/12 08:15:58;;;;;;;;;;;20.20;35.20;;;;;;491634;240;959;-69
2020/12/12 08:17:59;;;;;;;;;;;20.30;35.10;;;;;;491622;240;1156;-69
2020/12/12 08:20:01;;;;;;;;;;;20.30;35.00;;;;;;491643;240;2191;-69
2020/12/12 08:22:01;;;;;;;;;;;20.30;35.00;;;;;;491623;240;1314;-69
2020/12/12 08:24:03;;;;;;;;;;;20.40;35.00;;;;;;491601;240;1206;-69
2020/12/12 08:26:04;;;;;;;;;;;20.30;34.90;;;;;;491561;240;966;-70
2020/12/12 08:28:05;;;;;;;;;;;20.40;34.90;;;;;;491604;240;1110;-69
2020/12/12 08:30:07;;;;;;;;;;;20.30;35.00;;;;;;491638;240;1158;-69
2020/12/12 08:32:08;;;;;;;;;;;20.30;35.00;;;;;;491615;242;1053;-69
2020/12/12 08:34:09;;;;;;;;;;;20.20;35.10;;;;;;491597;240;1205;-69
2020/12/12 08:36:11;;;;;;;;;;;20.30;35.00;;;;;;491606;240;950;-70
2020/12/12 08:38:12;;;;;;;;;;;20.30;35.00;;;;;;491634;240;1063;-69
2020/12/12 08:40:13;;;;;;;;;;;20.30;35.00;;;;;;491645;240;2191;-69
2020/12/12 08:42:14;;;;;;;;;;;20.30;35.00;;;;;;491693;240;939;-69
2020/12/12 08:44:16;;;;;;;;;;;20.30;35.00;;;;;;491720;240;1075;-69
2020/12/12 08:46:17;;;;;;;;;;;20.40;34.90;;;;;;491665;240;941;-69
2020/12/12 08:48:18;;;;;;;;;;;20.40;34.80;;;;;;491697;240;1163;-69
2020/12/12 08:50:19;;;;;;;;;;;20.40;34.80;;;;;;491648;240;1039;-69
2020/12/12 08:52:21;;;;;;;;;;;20.40;34.90;;;;;;491664;240;943;-70
2020/12/12 08:54:22;;;;;;;;;;;20.40;34.90;;;;;;491620;240;1066;-69
2020/12/12 08:56:24;;;;;;;;;;;20.40;34.90;;;;;;491595;240;963;-69
2020/12/12 08:58:25;;;;;;;;;;;20.40;34.90;;;;;;491619;240;1143;-69
2020/12/12 09:00:26;;;;;;;;;;;20.40;35.00;;;;;;491704;240;2204;-70
2020/12/12 09:02:28;;;;;;;;;;;20.40;35.00;;;;;;491696;240;1228;-69
2020/12/12 09:04:29;;;;;;;;;;;20.40;35.00;;;;;;491675;240;1179;-69
2020/12/12 09:06:32;;;;;;;;;;;20.40;35.00;;;;;;491648;240;1007;-70
2020/12/12 09:08:31;;;;;;;;;;;20.40;35.00;;;;;;491607;242;1341;-69
2020/12/12 09:10:33;;;;;;;;;;;20.40;35.10;;;;;;491630;240;953;-69
2020/12/12 09:12:34;;;;;;;;;;;20.40;34.90;;;;;;491633;240;1083;-69
2020/12/12 09:14:35;;;;;;;;;;;20.40;35.10;;;;;;491678;240;1265;-69
2020/12/12 09:16:38;;;;;;;;;;;20.40;35.20;;;;;;491640;240;1316;-69
2020/12/12 09:18:39;;;;;;;;;;;20.30;34.80;;;;;;491626;240;1148;-69
2020/12/12 09:20:40;;;;;;;;;;;20.40;35.00;;;;;;491614;240;2195;-69
2020/12/12 09:22:42;;;;;;;;;;;20.40;35.20;;;;;;491584;240;1134;-69
2020/12/12 09:24:43;;;;;;;;;;;20.40;35.10;;;;;;491664;240;961;-69
2020/12/12 09:26:44;;;;;;;;;;;20.40;35.10;;;;;;491660;240;1146;-69
2020/12/12 09:28:45;;;;;;;;;;;20.50;35.00;;;;;;491663;240;1084;-69
2020/12/12 09:30:47;;;;;;;;;;;20.50;35.00;;;;;;491646;240;1056;-69
2020/12/12 09:32:48;;;;;;;;;;;20.50;35.00;;;;;;491648;240;1207;-69
2020/12/12 09:34:49;;;;;;;;;;;20.40;35.10;;;;;;491637;240;1137;-69
2020/12/12 09:36:50;;;;;;;;;;;20.50;35.10;;;;;;491673;240;1044;-70
2020/12/12 09:38:52;;;;;;;;;;;20.40;35.00;;;;;;491650;240;984;-70
2020/12/12 09:40:53;;;;;;;;;;;20.40;35.00;;;;;;491651;240;2208;-69
2020/12/12 09:42:54;;;;;;;;;;;20.50;35.00;;;;;;491672;240;1036;-69
2020/12/12 09:44:56;;;;;;;;;;;20.50;34.90;;;;;;491575;240;1128;-69
2020/12/12 09:46:57;;;;;;;;;;;20.50;34.90;;;;;;491639;240;1031;-69
2020/12/12 09:48:58;;;;;;;;;;;20.40;34.90;;;;;;491656;240;1303;-70
2020/12/12 09:50:59;;;;;;;;;;;20.50;34.80;;;;;;491647;240;956;-69
2020/12/12 09:53:01;;;;;;;;;;;20.50;34.80;;;;;;491680;240;1078;-69
2020/12/12 09:55:02;;;;;;;;;;;20.50;34.90;;;;;;491680;240;1107;-69
2020/12/12 09:57:03;;;;;;;;;;;20.40;34.80;;;;;;491645;240;1041;-69
2020/12/12 09:59:04;;;;;;;;;;;20.50;34.80;;;;;;491679;240;1069;-70
2020/12/12 10:01:06;;;;;;;;;;;20.60;34.60;;;;;;491649;240;2183;-69
2020/12/12 10:03:07;;;;;;;;;;;20.60;34.60;;;;;;491728;240;1040;-69
2020/12/12 10:05:08;;;;;;;;;;;20.50;34.60;;;;;;491684;240;1156;-69
2020/12/12 10:07:10;;;;;;;;;;;20.50;34.50;;;;;;491673;240;967;-69
2020/12/12 10:09:11;;;;;;;;;;;20.50;34.40;;;;;;491667;240;1011;-69
2020/12/12 10:11:12;;;;;;;;;;;20.50;34.40;;;;;;491586;240;1081;-69
2020/12/12 10:13:13;;;;;;;;;;;20.50;34.50;;;;;;491604;240;1003;-70
2020/12/12 10:15:15;;;;;;;;;;;20.50;34.60;;;;;;491608;240;989;-69
2020/12/12 10:17:16;;;;;;;;;;;20.50;34.60;;;;;;491633;240;1103;-70
2020/12/12 10:19:18;;;;;;;;;;;20.50;34.70;;;;;;491628;240;1138;-69
2020/12/12 10:21:19;;;;;;;;;;;20.60;34.70;;;;;;491624;240;2192;-69
2020/12/12 10:23:20;;;;;;;;;;;20.60;34.60;;;;;;491586;240;1136;-69
2020/12/12 10:25:22;;;;;;;;;;;20.60;34.70;;;;;;491724;240;1046;-69
2020/12/12 10:27:23;;;;;;;;;;;20.60;34.70;;;;;;491575;240;1581;-69
2020/12/12 10:29:24;;;;;;;;;;;20.50;34.60;;;;;;491674;240;938;-69
2020/12/12 10:31:25;;;;;;;;;;;20.50;34.60;;;;;;491610;240;936;-69
2020/12/12 10:33:27;;;;;;;;;;;20.60;34.70;;;;;;491637;240;975;-70
2020/12/12 10:35:28;;;;;;;;;;;20.60;34.70;;;;;;491674;240;1186;-69
2020/12/12 10:37:29;;;;;;;;;;;20.60;34.70;;;;;;491622;240;1142;-69
2020/12/12 10:39:33;;;;;;;;;;;20.60;34.80;;;;;;491696;240;972;-69
2020/12/12 10:41:32;;;;;;;;;;;20.60;34.80;;;;;;491594;242;2196;-69
2020/12/12 10:43:33;;;;;;;;;;;20.60;34.70;;;;;;491717;240;1015;-69
2020/12/12 10:45:34;;;;;;;;;;;20.60;34.70;;;;;;491681;240;1073;-69
2020/12/12 10:47:36;;;;;;;;;;;20.60;34.70;;;;;;491738;240;1148;-69
2020/12/12 10:49:37;;;;;;;;;;;20.60;34.70;;;;;;491639;240;1161;-70
2020/12/12 10:51:45;;;;;;;;;;;20.60;34.70;;;;;;491651;240;1094;-69
2020/12/12 10:53:39;;;;;;;;;;;20.60;34.80;;;;;;491585;242;1515;-69
2020/12/12 10:55:41;;;;;;;;;;;20.60;34.70;;;;;;491617;240;1043;-70
2020/12/12 10:57:43;;;;;;;;;;;20.60;34.80;;;;;;491746;240;1067;-69
2020/12/12 10:59:44;;;;;;;;;;;20.70;34.70;;;;;;491584;240;971;-69
2020/12/12 11:01:45;;;;;;;;;;;20.70;34.70;;;;;;491525;240;2187;-70
2020/12/12 11:03:47;;;;;;;;;;;20.70;34.60;;;;;;491576;240;948;-69
2020/12/12 11:05:48;;;;;;;;;;;20.70;34.50;;;;;;491585;240;1164;-69
2020/12/12 11:07:49;;;;;;;;;;;20.70;34.70;;;;;;491561;240;950;-69
2020/12/12 11:09:50;;;;;;;;;;;20.70;34.60;;;;;;491605;240;934;-70
2020/12/12 11:11:52;;;;;;;;;;;20.70;34.60;;;;;;491698;240;950;-69
2020/12/12 11:13:53;;;;;;;;;;;20.70;34.60;;;;;;491660;240;1057;-69
2020/12/12 11:15:54;;;;;;;;;;;20.70;34.60;;;;;;491626;240;971;-69
2020/12/12 11:17:55;;;;;;;;;;;20.70;34.60;;;;;;491628;240;1180;-70
2020/12/12 11:19:57;;;;;;;;;;;20.70;34.50;;;;;;491612;240;1180;-69
2020/12/12 11:21:58;;;;;;;;;;;20.70;34.50;;;;;;491630;240;2212;-69
2020/12/12 11:23:59;;;;;;;;;;;20.70;34.50;;;;;;491739;240;965;-69
2020/12/12 11:26:01;;;;;;;;;;;20.80;34.40;;;;;;491613;240;976;-69
2020/12/12 11:28:02;;;;;;;;;;;20.80;34.50;;;;;;491654;240;1295;-69
2020/12/12 11:30:03;;;;;;;;;;;20.80;34.50;;;;;;491639;240;1044;-69
2020/12/12 11:32:04;;;;;;;;;;;20.70;34.40;;;;;;491537;240;1203;-69
2020/12/12 11:34:10;;;;;;;;;;;20.70;34.40;;;;;;491648;240;963;-69
2020/12/12 11:36:16;;;;;;;;;;;20.70;34.70;;;;;;491599;242;1398;-69
2020/12/12 11:38:21;;;;;;;;;;;20.70;34.70;;;;;;491574;241;1343;-69
2020/12/12 11:40:23;;;;;;;;;;;20.60;34.80;;;;;;491652;240;1209;-69
2020/12/12 11:42:44;;;;;;;;;;;20.60;34.70;;;;;;491644;241;2200;-69
2020/12/12 11:44:52;;;;;;;;;;;20.60;34.80;;;;;;491630;241;1298;-69
2020/12/12 11:46:48;;;;;;;;;;;20.60;34.80;;;;;;491590;241;1411;-69
2020/12/12 11:48:51;;;;;;;;;;;20.60;34.90;;;;;;491659;240;991;-70
2020/12/12 11:50:50;;;;;;;;;;;20.50;35.00;;;;;;491603;242;1452;-69
2020/12/12 11:52:54;;;;;;;;;;;20.50;35.00;;;;;;491676;240;1153;-69
2020/12/12 11:54:53;;;;;;;;;;;20.40;35.10;;;;;;491649;241;1327;-69
2020/12/12 11:56:54;;;;;;;;;;;20.40;35.10;;;;;;491615;240;1279;-69
2020/12/12 11:58:55;;;;;;;;;;;20.30;35.20;;;;;;491601;240;1047;-69